»·PEaware :: N714TW KSBP-KSJC

N714TW :: KSBP-KSJC

FLIGHT INFORMATION

Flight Status: Arrived
Operator: Privately registered:
United States
More flights under this callsign
Pilot: Peter S. (23284)
Aircraft: BEECH AIRCRAFT BARON
(BE58)
More flights by this aircraft type
Origin: KSBP San Luis Co Regl
United States
Destination: KSJC Mineta San Jose Intl
United States
More flights between these airports :: More routes between these airports
Route: PRB V113 ROM V485 GILRO
File this flight plan on PilotEdge
Remarks:
Altitude:
(Current/Filed)
8,000ft
Speed:
(Current/Filed)
150kts
Departed: 12-Jan-20 12:13 PM
Arrived: 12-Jan-20 01:18 PM
Distance/Time
Traveled:
142nm/1:05
Distance/Time
To Go:
Arrived

Flight Plot

Page will automatically refresh every two minutes.

Flight plan parsing failed; only flown route is shown


Map Options




Map Legend


Flown Route
Filed Route
Departure Airport
Arrival Airport
Navaid (VOR, NDB)
Fix

Horizontal Profiles

Position Reports

Time Latitude Longitude Heading Altitude Ground
Speed
12-Jan-20 11:59 35.237412 -120.636682 304 215ft 0kts
12-Jan-20 12:00 35.237412 -120.636682 304 215ft 0kts
12-Jan-20 12:01 35.237412 -120.636682 304 215ft 0kts
12-Jan-20 12:02 35.237412 -120.636682 304 215ft 0kts
12-Jan-20 12:03 35.237412 -120.636682 304 215ft 0kts
12-Jan-20 12:04 35.237412 -120.636682 304 215ft 0kts
12-Jan-20 12:05 35.237412 -120.636682 304 215ft 0kts
12-Jan-20 12:06 35.237412 -120.636682 304 215ft 0kts
12-Jan-20 12:07 35.237418 -120.636693 302 215ft 0kts
12-Jan-20 12:08 35.237448 -120.636745 306 215ft 4kts
12-Jan-20 12:09 35.237522 -120.636874 300 215ft 0kts
12-Jan-20 12:10 35.235098 -120.634937 123 215ft 26kts
12-Jan-20 12:11 35.233309 -120.632236 198 215ft 0kts
12-Jan-20 12:12 35.237919 -120.641850 305 262ft 112kts
12-Jan-20 12:13 35.255518 -120.677030 302 1752ft 116kts
12-Jan-20 12:14 35.271582 -120.710938 306 3159ft 116kts
12-Jan-20 12:15 35.290611 -120.741893 356 4348ft 113kts
12-Jan-20 12:16 35.321029 -120.734294 3 5478ft 111kts
12-Jan-20 12:17 35.350865 -120.725205 9 6462ft 106kts
12-Jan-20 12:18 35.378814 -120.716491 7 7320ft 101kts
12-Jan-20 12:19 35.406955 -120.707972 7 8018ft 108kts
12-Jan-20 12:20 35.440941 -120.697667 7 7994ft 135kts
12-Jan-20 12:21 35.478291 -120.686261 7 7975ft 140kts
12-Jan-20 12:22 35.516302 -120.674679 7 7972ft 140kts
12-Jan-20 12:23 35.554327 -120.663099 7 7974ft 141kts
12-Jan-20 12:24 35.592470 -120.651471 7 7973ft 141kts
12-Jan-20 12:25 35.630689 -120.639809 7 7972ft 141kts
12-Jan-20 12:26 35.668753 -120.628219 5 7972ft 140kts
12-Jan-20 12:27 35.706844 -120.629769 351 7975ft 136kts
12-Jan-20 12:28 35.744884 -120.632911 352 7972ft 136kts
12-Jan-20 12:29 35.783901 -120.636095 350 7991ft 144kts
12-Jan-20 12:30 35.824775 -120.639383 350 8000ft 148kts
12-Jan-20 12:31 35.866108 -120.642680 350 7999ft 148kts
12-Jan-20 12:32 35.907460 -120.646010 350 7999ft 148kts
12-Jan-20 12:33 35.948811 -120.649352 350 7999ft 148kts
12-Jan-20 12:34 35.990543 -120.652738 350 7976ft 149kts
12-Jan-20 12:35 36.032200 -120.656107 350 7925ft 150kts
12-Jan-20 12:36 36.074386 -120.659510 351 7841ft 151kts
12-Jan-20 12:37 36.116670 -120.662933 351 7763ft 152kts
12-Jan-20 12:38 36.155486 -120.678859 322 7681ft 149kts
12-Jan-20 12:39 36.188599 -120.711202 322 7592ft 150kts
12-Jan-20 12:40 36.221694 -120.743359 322 7566ft 149kts
12-Jan-20 12:41 36.254449 -120.775033 322 7568ft 148kts
12-Jan-20 12:42 36.286985 -120.806509 322 7568ft 148kts
12-Jan-20 12:43 36.319555 -120.838052 322 7568ft 148kts
12-Jan-20 12:44 36.352102 -120.869608 322 7568ft 148kts
12-Jan-20 12:45 36.384728 -120.901274 322 7568ft 148kts
12-Jan-20 12:46 36.417441 -120.933060 322 7567ft 148kts
12-Jan-20 12:47 36.450045 -120.964758 322 7506ft 151kts
12-Jan-20 12:48 36.482932 -120.996740 322 7498ft 149kts
12-Jan-20 12:49 36.515067 -121.028081 322 7584ft 144kts
12-Jan-20 12:50 36.546661 -121.058923 322 7676ft 143kts
12-Jan-20 12:51 36.578027 -121.089570 322 7765ft 142kts
12-Jan-20 12:52 36.608973 -121.120309 320 7854ft 141kts
12-Jan-20 12:53 36.638939 -121.152313 320 7940ft 141kts
12-Jan-20 12:54 36.668939 -121.184146 320 7962ft 143kts
12-Jan-20 12:55 36.699775 -121.216799 320 7962ft 144kts
12-Jan-20 12:56 36.730404 -121.249271 320 7961ft 144kts
12-Jan-20 12:57 36.761075 -121.281828 320 7960ft 144kts
12-Jan-20 12:58 36.791819 -121.314498 320 7960ft 144kts
12-Jan-20 12:59 36.822659 -121.347304 320 7960ft 144kts
12-Jan-20 13:00 36.853969 -121.380647 320 7960ft 144kts
12-Jan-20 13:01 36.885634 -121.414361 321 7690ft 154kts
12-Jan-20 13:02 36.920071 -121.451068 320 6772ft 161kts
12-Jan-20 13:03 36.956271 -121.489653 319 5869ft 161kts
12-Jan-20 13:04 36.991271 -121.527165 317 5383ft 158kts
12-Jan-20 13:05 37.026494 -121.564966 315 4924ft 161kts
12-Jan-20 13:06 37.061851 -121.602889 315 4590ft 159kts
12-Jan-20 13:07 37.097611 -121.641320 315 4179ft 164kts
12-Jan-20 13:08 37.133129 -121.679483 314 4057ft 166kts
12-Jan-20 13:09 37.171022 -121.720143 315 4023ft 174kts
12-Jan-20 13:10 37.207009 -121.759112 318 3895ft 152kts
12-Jan-20 13:11 37.237450 -121.792598 318 3128ft 139kts
12-Jan-20 13:12 37.265442 -121.823343 318 2518ft 127kts
12-Jan-20 13:13 37.290957 -121.851732 319 1912ft 117kts
12-Jan-20 13:14 37.312440 -121.874859 319 1258ft 94kts
12-Jan-20 13:15 37.332105 -121.896699 320 750ft 86kts
12-Jan-20 13:16 37.350255 -121.916258 321 285ft 87kts
12-Jan-20 13:17 37.362184 -121.930774 230 66ft 12kts
12-Jan-20 13:18 37.361177 -121.933177 264 66ft 15kts
12-Jan-20 13:19 37.360969 -121.934503 319 66ft 0kts
12-Jan-20 13:20 37.360969 -121.934503 318 66ft 0kts

Navigation Log

Ident Type
Flight plan parsing failed, navigation log unavailable